sensor_id;sensor_type;location;lat;lon;timestamp;pressure;altitude;pressure_sealevel;temperature;humidity
68988;BME280;56038;46.080;11.116;2022-11-21T00:04:17;98840.41;;;4.14;66.69
68988;BME280;56038;46.080;11.116;2022-11-21T00:09:19;98846.75;;;3.99;68.08
68988;BME280;56038;46.080;11.116;2022-11-21T00:14:21;98822.72;;;3.96;68.39
68988;BME280;56038;46.080;11.116;2022-11-21T00:19:24;98829.50;;;4.00;68.22
68988;BME280;56038;46.080;11.116;2022-11-21T00:24:26;98836.34;;;4.02;68.07
68988;BME280;56038;46.080;11.116;2022-11-21T00:29:27;98818.25;;;4.02;67.24
68988;BME280;56038;46.080;11.116;2022-11-21T00:34:31;98820.94;;;3.98;67.54
68988;BME280;56038;46.080;11.116;2022-11-21T00:39:32;98817.63;;;3.91;68.11
68988;BME280;56038;46.080;11.116;2022-11-21T00:44:34;98822.41;;;3.71;69.02
68988;BME280;56038;46.080;11.116;2022-11-21T00:49:37;98825.13;;;3.65;69.37
68988;BME280;56038;46.080;11.116;2022-11-21T00:54:39;98826.97;;;3.58;69.05
68988;BME280;56038;46.080;11.116;2022-11-21T00:59:41;98827.97;;;3.51;69.52
68988;BME280;56038;46.080;11.116;2022-11-21T01:04:44;98829.75;;;3.49;70.00
68988;BME280;56038;46.080;11.116;2022-11-21T01:09:46;98827.19;;;3.46;71.52
68988;BME280;56038;46.080;11.116;2022-11-21T01:14:48;98821.97;;;3.50;70.70
68988;BME280;56038;46.080;11.116;2022-11-21T01:19:51;98821.56;;;3.69;68.54
68988;BME280;56038;46.080;11.116;2022-11-21T01:24:53;98819.50;;;3.44;69.01
68988;BME280;56038;46.080;11.116;2022-11-21T01:29:54;98809.53;;;3.26;70.59
68988;BME280;56038;46.080;11.116;2022-11-21T01:34:58;98823.53;;;3.16;71.25
68988;BME280;56038;46.080;11.116;2022-11-21T01:39:59;98827.22;;;3.03;71.98
68988;BME280;56038;46.080;11.116;2022-11-21T01:45:01;98840.13;;;2.99;71.75
68988;BME280;56038;46.080;11.116;2022-11-21T01:50:07;98829.88;;;2.96;71.54
68988;BME280;56038;46.080;11.116;2022-11-21T01:55:10;98833.56;;;2.85;71.91
68988;BME280;56038;46.080;11.116;2022-11-21T02:00:16;98830.97;;;2.83;71.79
68988;BME280;56038;46.080;11.116;2022-11-21T02:05:27;98830.97;;;2.83;71.58
68988;BME280;56038;46.080;11.116;2022-11-21T02:10:30;98836.13;;;2.83;71.59
68988;BME280;56038;46.080;11.116;2022-11-21T02:15:31;98850.84;;;2.78;71.80
68988;BME280;56038;46.080;11.116;2022-11-21T02:20:35;98850.84;;;2.78;71.58
68988;BME280;56038;46.080;11.116;2022-11-21T02:25:40;98860.47;;;2.68;71.57
68988;BME280;56038;46.080;11.116;2022-11-21T02:30:42;98858.84;;;2.63;72.45
68988;BME280;56038;46.080;11.116;2022-11-21T02:35:54;98855.47;;;2.59;73.20
68988;BME280;56038;46.080;11.116;2022-11-21T02:41:02;98847.81;;;2.55;73.00
68988;BME280;56038;46.080;11.116;2022-11-21T02:46:06;98831.91;;;2.28;74.40
68988;BME280;56038;46.080;11.116;2022-11-21T02:51:07;98830.81;;;2.43;73.73
68988;BME280;56038;46.080;11.116;2022-11-21T02:56:10;98838.38;;;2.54;73.05
68988;BME280;56038;46.080;11.116;2022-11-21T03:01:12;98815.13;;;2.57;74.35
68988;BME280;56038;46.080;11.116;2022-11-21T03:06:14;98822.13;;;2.49;74.16
68988;BME280;56038;46.080;11.116;2022-11-21T03:11:17;98811.28;;;2.28;74.61
68988;BME280;56038;46.080;11.116;2022-11-21T03:16:19;98817.34;;;2.26;74.97
68988;BME280;56038;46.080;11.116;2022-11-21T03:21:21;98821.53;;;2.31;74.96
68988;BME280;56038;46.080;11.116;2022-11-21T03:26:24;98817.94;;;2.43;74.15
68988;BME280;56038;46.080;11.116;2022-11-21T03:31:25;98824.03;;;2.36;74.24
68988;BME280;56038;46.080;11.116;2022-11-21T03:36:27;98836.94;;;2.37;73.91
68988;BME280;56038;46.080;11.116;2022-11-21T03:41:30;98841.19;;;2.38;74.08
68988;BME280;56038;46.080;11.116;2022-11-21T03:46:34;98850.59;;;2.41;74.00
68988;BME280;56038;46.080;11.116;2022-11-21T03:51:36;98848.84;;;2.43;73.82
68988;BME280;56038;46.080;11.116;2022-11-21T03:56:39;98836.22;;;2.26;73.94
68988;BME280;56038;46.080;11.116;2022-11-21T04:01:41;98830.31;;;2.21;74.06
68988;BME280;56038;46.080;11.116;2022-11-21T04:06:43;98841.38;;;2.26;73.94
68988;BME280;56038;46.080;11.116;2022-11-21T04:11:46;98833.03;;;2.10;74.61
68988;BME280;56038;46.080;11.116;2022-11-21T04:16:48;98829.63;;;2.10;74.98
68988;BME280;56038;46.080;11.116;2022-11-21T04:21:49;98835.72;;;2.03;75.07
68988;BME280;56038;46.080;11.116;2022-11-21T04:26:54;98832.91;;;2.18;74.74
68988;BME280;56038;46.080;11.116;2022-11-21T04:31:56;98832.34;;;1.99;74.54
68988;BME280;56038;46.080;11.116;2022-11-21T04:36:57;98834.16;;;1.93;74.40
68988;BME280;56038;46.080;11.116;2022-11-21T04:42:00;98831.63;;;1.90;74.23
68988;BME280;56038;46.080;11.116;2022-11-21T04:47:02;98843.69;;;1.86;74.67
68988;BME280;56038;46.080;11.116;2022-11-21T04:52:04;98850.09;;;2.18;73.50
68988;BME280;56038;46.080;11.116;2022-11-21T04:57:07;98853.25;;;1.76;75.48
68988;BME280;56038;46.080;11.116;2022-11-21T05:02:09;98834.56;;;1.62;75.25
68988;BME280;56038;46.080;11.116;2022-11-21T05:07:12;98822.59;;;1.60;75.44
68988;BME280;56038;46.080;11.116;2022-11-21T05:12:16;98809.56;;;1.70;75.12
68988;BME280;56038;46.080;11.116;2022-11-21T05:17:35;98792.66;;;1.53;75.95
68988;BME280;56038;46.080;11.116;2022-11-21T05:22:37;98804.56;;;1.61;75.55
68988;BME280;56038;46.080;11.116;2022-11-21T05:27:40;98796.03;;;1.56;75.73
68988;BME280;56038;46.080;11.116;2022-11-21T05:32:42;98789.25;;;1.49;76.13
68988;BME280;56038;46.080;11.116;2022-11-21T05:37:44;98792.38;;;1.72;75.06
68988;BME280;56038;46.080;11.116;2022-11-21T05:42:47;98785.78;;;1.53;75.70
68988;BME280;56038;46.080;11.116;2022-11-21T05:48:06;98771.31;;;1.46;76.31
68988;BME280;56038;46.080;11.116;2022-11-21T05:53:08;98788.44;;;1.47;76.09
68988;BME280;56038;46.080;11.116;2022-11-21T05:58:11;98793.63;;;1.44;76.63
68988;BME280;56038;46.080;11.116;2022-11-21T06:03:13;98785.94;;;1.42;76.44
68988;BME280;56038;46.080;11.116;2022-11-21T06:08:33;98788.50;;;1.44;76.64
68988;BME280;56038;46.080;11.116;2022-11-21T06:13:36;98791.06;;;1.41;76.64
68988;BME280;56038;46.080;11.116;2022-11-21T06:18:39;98788.50;;;1.41;76.63
68988;BME280;56038;46.080;11.116;2022-11-21T06:23:41;98798.88;;;1.35;76.51
68988;BME280;56038;46.080;11.116;2022-11-21T06:28:45;98801.53;;;1.30;76.84
68988;BME280;56038;46.080;11.116;2022-11-21T06:33:51;98816.97;;;1.29;77.01
68988;BME280;56038;46.080;11.116;2022-11-21T06:38:54;98813.53;;;1.30;76.77
68988;BME280;56038;46.080;11.116;2022-11-21T06:43:59;98816.03;;;1.34;77.42
68988;BME280;56038;46.080;11.116;2022-11-21T06:49:01;98825.44;;;1.37;77.75
68988;BME280;56038;46.080;11.116;2022-11-21T06:54:03;98854.69;;;1.30;77.75
68988;BME280;56038;46.080;11.116;2022-11-21T06:59:06;98831.53;;;1.30;77.50
68988;BME280;56038;46.080;11.116;2022-11-21T07:04:08;98861.44;;;1.38;77.30
68988;BME280;56038;46.080;11.116;2022-11-21T07:09:10;98845.19;;;1.35;77.29
68988;BME280;56038;46.080;11.116;2022-11-21T07:14:13;98840.81;;;1.43;77.77
68988;BME280;56038;46.080;11.116;2022-11-21T07:19:15;98849.25;;;1.54;77.07
68988;BME280;56038;46.080;11.116;2022-11-21T07:24:16;98843.06;;;1.67;76.24
68988;BME280;56038;46.080;11.116;2022-11-21T07:29:20;98838.53;;;1.86;75.94
68988;BME280;56038;46.080;11.116;2022-11-21T07:34:21;98840.81;;;2.07;74.63
68988;BME280;56038;46.080;11.116;2022-11-21T07:39:23;98841.03;;;1.92;75.10
68988;BME280;56038;46.080;11.116;2022-11-21T07:44:26;98829.03;;;1.91;74.96
68988;BME280;56038;46.080;11.116;2022-11-21T07:49:28;98823.66;;;2.06;75.15
68988;BME280;56038;46.080;11.116;2022-11-21T07:54:30;98816.63;;;2.16;73.64
68988;BME280;56038;46.080;11.116;2022-11-21T07:59:33;98806.00;;;2.36;73.13
68988;BME280;56038;46.080;11.116;2022-11-21T08:04:35;98808.38;;;2.48;71.83
68988;BME280;56038;46.080;11.116;2022-11-21T08:09:36;98792.53;;;2.71;70.75
68988;BME280;56038;46.080;11.116;2022-11-21T08:14:40;98788.22;;;2.72;71.72
68988;BME280;56038;46.080;11.116;2022-11-21T08:19:42;98793.03;;;3.35;70.78
68988;BME280;56038;46.080;11.116;2022-11-21T08:24:43;98786.13;;;7.31;59.44
68988;BME280;56038;46.080;11.116;2022-11-21T08:29:47;98792.22;;;10.55;46.79
68988;BME280;56038;46.080;11.116;2022-11-21T08:34:48;98782.19;;;12.13;41.92
68988;BME280;56038;46.080;11.116;2022-11-21T08:39:50;98783.94;;;12.28;42.10
68988;BME280;56038;46.080;11.116;2022-11-21T08:44:53;98761.47;;;14.79;36.40
68988;BME280;56038;46.080;11.116;2022-11-21T08:49:55;98763.56;;;14.61;36.31
68988;BME280;56038;46.080;11.116;2022-11-21T08:54:57;98759.09;;;15.65;33.99
68988;BME280;56038;46.080;11.116;2022-11-21T09:00:00;98747.75;;;15.88;33.01
68988;BME280;56038;46.080;11.116;2022-11-21T09:05:02;98733.50;;;16.62;31.73
68988;BME280;56038;46.080;11.116;2022-11-21T09:10:05;98728.44;;;18.06;29.66
68988;BME280;56038;46.080;11.116;2022-11-21T09:15:10;98711.81;;;19.00;28.43
68988;BME280;56038;46.080;11.116;2022-11-21T09:20:29;98716.38;;;19.90;26.83
68988;BME280;56038;46.080;11.116;2022-11-21T09:25:32;98699.50;;;19.20;28.37
68988;BME280;56038;46.080;11.116;2022-11-21T09:30:35;98702.84;;;19.93;26.98
68988;BME280;56038;46.080;11.116;2022-11-21T09:35:37;98702.47;;;20.36;25.93
68988;BME280;56038;46.080;11.116;2022-11-21T09:40:43;98696.22;;;21.77;24.29
68988;BME280;56038;46.080;11.116;2022-11-21T09:45:48;98698.06;;;21.77;23.58
68988;BME280;56038;46.080;11.116;2022-11-21T09:50:53;98683.47;;;23.06;21.52
68988;BME280;56038;46.080;11.116;2022-11-21T09:55:59;98683.47;;;23.40;20.71
68988;BME280;56038;46.080;11.116;2022-11-21T10:01:04;98686.06;;;24.00;20.63
68988;BME280;56038;46.080;11.116;2022-11-21T10:06:15;98671.81;;;23.75;20.07
68988;BME280;56038;46.080;11.116;2022-11-21T10:11:25;98654.38;;;24.05;19.90
68988;BME280;56038;46.080;11.116;2022-11-21T10:16:36;98647.72;;;24.74;19.39
68988;BME280;56038;46.080;11.116;2022-11-21T10:22:01;98628.03;;;24.02;19.61
68988;BME280;56038;46.080;11.116;2022-11-21T10:27:12;98621.88;;;25.69;17.96
68988;BME280;56038;46.080;11.116;2022-11-21T10:32:21;98609.06;;;25.87;17.39
68988;BME280;56038;46.080;11.116;2022-11-21T10:37:36;98610.84;;;26.18;16.82
68988;BME280;56038;46.080;11.116;2022-11-21T10:42:43;98594.06;;;25.47;17.88
68988;BME280;56038;46.080;11.116;2022-11-21T10:47:51;98585.41;;;25.99;17.78
68988;BME280;56038;46.080;11.116;2022-11-21T10:53:02;98573.69;;;25.46;17.49
68988;BME280;56038;46.080;11.116;2022-11-21T10:58:35;98559.84;;;27.67;15.83
68988;BME280;56038;46.080;11.116;2022-11-21T11:03:38;98557.09;;;27.45;16.05
68988;BME280;56038;46.080;11.116;2022-11-21T11:08:49;98532.75;;;26.37;16.60
68988;BME280;56038;46.080;11.116;2022-11-21T11:13:56;98525.41;;;27.34;16.03
68988;BME280;56038;46.080;11.116;2022-11-21T11:19:02;98519.63;;;26.57;16.68
68988;BME280;56038;46.080;11.116;2022-11-21T11:24:20;98513.28;;;27.38;15.95
68988;BME280;56038;46.080;11.116;2022-11-21T11:29:25;98507.66;;;27.55;15.79
68988;BME280;56038;46.080;11.116;2022-11-21T11:34:37;98485.84;;;23.18;19.79
68988;BME280;56038;46.080;11.116;2022-11-21T11:39:44;98477.63;;;26.05;17.32
68988;BME280;56038;46.080;11.116;2022-11-21T11:45:08;98470.78;;;27.21;15.44
68988;BME280;56038;46.080;11.116;2022-11-21T11:50:37;98463.22;;;24.28;19.03
68988;BME280;56038;46.080;11.116;2022-11-21T11:55:42;98462.09;;;24.70;18.68
68988;BME280;56038;46.080;11.116;2022-11-21T12:00:48;98449.66;;;25.24;17.33
68988;BME280;56038;46.080;11.116;2022-11-21T12:05:58;98441.47;;;25.72;18.38
68988;BME280;56038;46.080;11.116;2022-11-21T12:11:10;98424.69;;;24.78;18.55
68988;BME280;56038;46.080;11.116;2022-11-21T12:16:33;98425.78;;;19.89;23.27
68988;BME280;56038;46.080;11.116;2022-11-21T12:21:39;98414.31;;;25.37;18.19
68988;BME280;56038;46.080;11.116;2022-11-21T12:26:51;98416.28;;;22.29;20.91
68988;BME280;56038;46.080;11.116;2022-11-21T12:32:04;98407.13;;;17.20;27.37
68988;BME280;56038;46.080;11.116;2022-11-21T12:37:20;98391.88;;;16.15;29.49
68988;BME280;56038;46.080;11.116;2022-11-21T12:42:39;98387.19;;;16.95;28.48
68988;BME280;56038;46.080;11.116;2022-11-21T12:48:11;98384.31;;;15.66;30.03
68988;BME280;56038;46.080;11.116;2022-11-21T12:53:39;98364.38;;;15.50;31.05
68988;BME280;56038;46.080;11.116;2022-11-21T12:59:01;98374.91;;;13.94;32.40
68988;BME280;56038;46.080;11.116;2022-11-21T13:04:07;98352.88;;;13.21;33.79
68988;BME280;56038;46.080;11.116;2022-11-21T13:09:15;98342.00;;;13.00;34.38
68988;BME280;56038;46.080;11.116;2022-11-21T13:14:25;98344.47;;;13.41;34.58
68988;BME280;56038;46.080;11.116;2022-11-21T13:19:34;98342.66;;;12.76;36.00
68988;BME280;56038;46.080;11.116;2022-11-21T13:24:56;98322.78;;;12.86;36.13
68988;BME280;56038;46.080;11.116;2022-11-21T13:30:32;98313.94;;;12.75;37.12
68988;BME280;56038;46.080;11.116;2022-11-21T13:35:58;98307.09;;;12.59;37.40
68988;BME280;56038;46.080;11.116;2022-11-21T13:41:01;98304.88;;;12.26;38.98
68988;BME280;56038;46.080;11.116;2022-11-21T13:52:12;98303.72;;;11.75;40.44
68988;BME280;56038;46.080;11.116;2022-11-21T13:57:45;98302.44;;;11.54;41.19
68988;BME280;56038;46.080;11.116;2022-11-21T14:03:10;98295.59;;;11.08;41.60
68988;BME280;56038;46.080;11.116;2022-11-21T14:08:19;98284.50;;;11.05;41.68
68988;BME280;56038;46.080;11.116;2022-11-21T14:13:26;98274.25;;;10.42;44.02
68988;BME280;56038;46.080;11.116;2022-11-21T14:18:29;98270.91;;;10.54;44.80
68988;BME280;56038;46.080;11.116;2022-11-21T14:23:33;98261.34;;;10.39;45.92
68988;BME280;56038;46.080;11.116;2022-11-21T14:28:38;98266.25;;;10.29;46.11
68988;BME280;56038;46.080;11.116;2022-11-21T14:33:40;98263.66;;;10.13;47.34
68988;BME280;56038;46.080;11.116;2022-11-21T14:38:44;98268.88;;;9.98;47.42
68988;BME280;56038;46.080;11.116;2022-11-21T14:43:47;98259.03;;;9.71;47.80
68988;BME280;56038;46.080;11.116;2022-11-21T14:48:49;98268.19;;;9.29;49.73
68988;BME280;56038;46.080;11.116;2022-11-21T14:53:52;98274.44;;;9.43;48.72
68988;BME280;56038;46.080;11.116;2022-11-21T14:58:56;98278.22;;;9.37;48.58
68988;BME280;56038;46.080;11.116;2022-11-21T15:03:59;98277.41;;;9.37;50.97
68988;BME280;56038;46.080;11.116;2022-11-21T15:09:01;98288.25;;;8.94;48.69
68988;BME280;56038;46.080;11.116;2022-11-21T15:14:10;98287.50;;;8.75;50.96
68988;BME280;56038;46.080;11.116;2022-11-21T15:19:22;98289.94;;;8.44;54.76
68988;BME280;56038;46.080;11.116;2022-11-21T15:24:34;98276.78;;;8.10;55.06
68988;BME280;56038;46.080;11.116;2022-11-21T15:29:40;98290.97;;;8.22;53.37
68988;BME280;56038;46.080;11.116;2022-11-21T15:34:42;98298.22;;;7.97;53.61
68988;BME280;56038;46.080;11.116;2022-11-21T15:39:45;98299.81;;;7.99;53.82
68988;BME280;56038;46.080;11.116;2022-11-21T15:44:58;98297.88;;;7.86;54.55
68988;BME280;56038;46.080;11.116;2022-11-21T15:50:00;98305.31;;;7.93;54.45
68988;BME280;56038;46.080;11.116;2022-11-21T15:55:02;98306.25;;;7.73;55.15
68988;BME280;56038;46.080;11.116;2022-11-21T16:00:06;98306.19;;;7.75;54.92
68988;BME280;56038;46.080;11.116;2022-11-21T16:05:10;98300.28;;;7.90;54.73
68988;BME280;56038;46.080;11.116;2022-11-21T16:10:13;98306.88;;;7.78;55.42
68988;BME280;56038;46.080;11.116;2022-11-21T16:15:16;98313.97;;;7.75;56.38
68988;BME280;56038;46.080;11.116;2022-11-21T16:20:18;98308.56;;;7.79;56.05
68988;BME280;56038;46.080;11.116;2022-11-21T16:25:20;98316.00;;;7.68;55.51
68988;BME280;56038;46.080;11.116;2022-11-21T16:30:23;98309.25;;;7.64;56.43
68988;BME280;56038;46.080;11.116;2022-11-21T16:35:24;98309.41;;;7.61;56.78
68988;BME280;56038;46.080;11.116;2022-11-21T16:40:26;98308.81;;;7.55;56.33
68988;BME280;56038;46.080;11.116;2022-11-21T16:45:31;98302.97;;;7.31;57.00
68988;BME280;56038;46.080;11.116;2022-11-21T16:50:33;98294.28;;;7.32;57.35
68988;BME280;56038;46.080;11.116;2022-11-21T16:55:34;98304.59;;;7.33;58.09
68988;BME280;56038;46.080;11.116;2022-11-21T17:00:38;98293.50;;;7.48;57.62
68988;BME280;56038;46.080;11.116;2022-11-21T17:05:39;98284.66;;;7.34;59.18
68988;BME280;56038;46.080;11.116;2022-11-21T17:10:41;98289.84;;;7.34;58.56
68988;BME280;56038;46.080;11.116;2022-11-21T17:15:44;98292.06;;;7.22;59.39
68988;BME280;56038;46.080;11.116;2022-11-21T17:20:46;98288.00;;;7.17;59.48
68988;BME280;56038;46.080;11.116;2022-11-21T17:25:48;98284.03;;;7.08;60.02
68988;BME280;56038;46.080;11.116;2022-11-21T17:30:51;98279.50;;;6.93;60.39
68988;BME280;56038;46.080;11.116;2022-11-21T17:35:53;98277.28;;;7.04;60.75
68988;BME280;56038;46.080;11.116;2022-11-21T17:40:58;98277.44;;;6.81;61.39
68988;BME280;56038;46.080;11.116;2022-11-21T17:46:03;98269.53;;;6.84;61.57
68988;BME280;56038;46.080;11.116;2022-11-21T17:51:07;98261.13;;;6.77;61.61
68988;BME280;56038;46.080;11.116;2022-11-21T17:56:10;98258.81;;;6.71;62.32
68988;BME280;56038;46.080;11.116;2022-11-21T18:01:14;98262.88;;;6.77;62.35
68988;BME280;56038;46.080;11.116;2022-11-21T18:06:19;98252.38;;;6.59;63.04
68988;BME280;56038;46.080;11.116;2022-11-21T18:11:21;98238.38;;;6.43;63.80
68988;BME280;56038;46.080;11.116;2022-11-21T18:16:26;98240.38;;;6.57;63.15
68988;BME280;56038;46.080;11.116;2022-11-21T18:21:29;98233.31;;;6.40;63.23
68988;BME280;56038;46.080;11.116;2022-11-21T18:26:32;98241.16;;;6.39;61.77
68988;BME280;56038;46.080;11.116;2022-11-21T18:31:36;98236.81;;;6.39;62.90
68988;BME280;56038;46.080;11.116;2022-11-21T18:36:38;98242.69;;;6.22;63.95
68988;BME280;56038;46.080;11.116;2022-11-21T18:41:40;98237.44;;;6.24;63.37
68988;BME280;56038;46.080;11.116;2022-11-21T18:46:44;98234.66;;;6.28;63.90
68988;BME280;56038;46.080;11.116;2022-11-21T18:51:46;98229.72;;;6.22;65.67
68988;BME280;56038;46.080;11.116;2022-11-21T18:56:47;98220.72;;;6.31;65.25
68988;BME280;56038;46.080;11.116;2022-11-21T19:01:50;98211.91;;;6.35;65.74
68988;BME280;56038;46.080;11.116;2022-11-21T19:06:52;98210.75;;;6.42;64.96
68988;BME280;56038;46.080;11.116;2022-11-21T19:11:54;98201.13;;;6.24;65.38
68988;BME280;56038;46.080;11.116;2022-11-21T19:16:57;98199.94;;;6.11;67.03
68988;BME280;56038;46.080;11.116;2022-11-21T19:21:59;98195.16;;;6.02;66.61
68988;BME280;56038;46.080;11.116;2022-11-21T19:27:03;98189.72;;;6.08;66.59
68988;BME280;56038;46.080;11.116;2022-11-21T19:32:06;98195.75;;;6.08;66.22
68988;BME280;56038;46.080;11.116;2022-11-21T19:37:08;98189.72;;;6.08;66.66
68988;BME280;56038;46.080;11.116;2022-11-21T19:42:10;98174.50;;;6.20;65.71
68988;BME280;56038;46.080;11.116;2022-11-21T19:47:13;98161.47;;;6.22;66.42
68988;BME280;56038;46.080;11.116;2022-11-21T19:52:15;98166.16;;;6.34;65.75
68988;BME280;56038;46.080;11.116;2022-11-21T19:57:17;98166.16;;;6.34;65.26
68988;BME280;56038;46.080;11.116;2022-11-21T20:02:20;98181.44;;;6.40;65.38
68988;BME280;56038;46.080;11.116;2022-11-21T20:07:22;98192.78;;;6.38;65.97
68988;BME280;56038;46.080;11.116;2022-11-21T20:12:24;98197.84;;;6.41;65.94
68988;BME280;56038;46.080;11.116;2022-11-21T20:17:27;98192.72;;;6.39;66.41
68988;BME280;56038;46.080;11.116;2022-11-21T20:22:28;98190.91;;;6.41;67.15
68988;BME280;56038;46.080;11.116;2022-11-21T20:27:30;98202.06;;;6.43;68.30
68988;BME280;56038;46.080;11.116;2022-11-21T20:32:33;98191.53;;;6.46;68.84
68988;BME280;56038;46.080;11.116;2022-11-21T20:37:35;98189.16;;;6.42;71.12
68988;BME280;56038;46.080;11.116;2022-11-21T20:42:37;98202.06;;;6.43;69.96
68988;BME280;56038;46.080;11.116;2022-11-21T20:47:41;98209.97;;;6.40;70.65
68988;BME280;56038;46.080;11.116;2022-11-21T20:52:42;98212.44;;;6.43;69.97
68988;BME280;56038;46.080;11.116;2022-11-21T20:57:44;98217.75;;;6.40;71.65
68988;BME280;56038;46.080;11.116;2022-11-21T21:02:47;98221.63;;;6.30;72.78
68988;BME280;56038;46.080;11.116;2022-11-21T21:07:49;98235.53;;;6.07;73.39
68988;BME280;56038;46.080;11.116;2022-11-21T21:12:51;98246.75;;;6.08;75.50
68988;BME280;56038;46.080;11.116;2022-11-21T21:17:54;98244.56;;;5.97;76.86
68988;BME280;56038;46.080;11.116;2022-11-21T21:22:56;98250.00;;;5.91;77.13
68988;BME280;56038;46.080;11.116;2022-11-21T21:27:58;98242.53;;;5.82;78.15
68988;BME280;56038;46.080;11.116;2022-11-21T21:33:01;98243.50;;;6.03;77.79
68988;BME280;56038;46.080;11.116;2022-11-21T21:38:03;98245.72;;;6.12;77.33
68988;BME280;56038;46.080;11.116;2022-11-21T21:43:05;98223.97;;;6.16;77.50
68988;BME280;56038;46.080;11.116;2022-11-21T21:48:08;98219.13;;;6.07;78.12
68988;BME280;56038;46.080;11.116;2022-11-21T21:53:09;98214.59;;;6.12;78.13
68988;BME280;56038;46.080;11.116;2022-11-21T21:58:11;98200.78;;;6.11;77.71
68988;BME280;56038;46.080;11.116;2022-11-21T22:03:14;98197.22;;;6.14;78.47
68988;BME280;56038;46.080;11.116;2022-11-21T22:08:16;98191.41;;;6.09;79.16
68988;BME280;56038;46.080;11.116;2022-11-21T22:13:18;98186.84;;;6.14;78.44
68988;BME280;56038;46.080;11.116;2022-11-21T22:18:21;98186.69;;;6.18;78.22
68988;BME280;56038;46.080;11.116;2022-11-21T22:23:23;98175.34;;;6.21;78.48
68988;BME280;56038;46.080;11.116;2022-11-21T22:28:26;98171.31;;;6.14;78.95
68988;BME280;56038;46.080;11.116;2022-11-21T22:33:30;98157.00;;;6.05;80.08
68988;BME280;56038;46.080;11.116;2022-11-21T22:38:33;98157.06;;;6.04;79.78
68988;BME280;56038;46.080;11.116;2022-11-21T22:43:35;98139.09;;;5.99;79.84
68988;BME280;56038;46.080;11.116;2022-11-21T22:48:39;98125.25;;;6.00;78.96
68988;BME280;56038;46.080;11.116;2022-11-21T22:53:40;98141.16;;;6.11;77.77
68988;BME280;56038;46.080;11.116;2022-11-21T22:58:42;98134.63;;;6.03;78.10
68988;BME280;56038;46.080;11.116;2022-11-21T23:03:46;98138.13;;;6.02;77.92
68988;BME280;56038;46.080;11.116;2022-11-21T23:08:48;98138.38;;;5.95;78.70
68988;BME280;56038;46.080;11.116;2022-11-21T23:13:51;98136.63;;;5.96;78.44
68988;BME280;56038;46.080;11.116;2022-11-21T23:18:54;98127.16;;;5.95;78.29
68988;BME280;56038;46.080;11.116;2022-11-21T23:23:56;98123.22;;;6.07;77.98
68988;BME280;56038;46.080;11.116;2022-11-21T23:28:58;98119.72;;;6.08;77.81
68988;BME280;56038;46.080;11.116;2022-11-21T23:34:02;98107.88;;;6.02;78.08
68988;BME280;56038;46.080;11.116;2022-11-21T23:39:04;98114.28;;;5.93;78.45
68988;BME280;56038;46.080;11.116;2022-11-21T23:44:06;98115.59;;;5.82;78.91
68988;BME280;56038;46.080;11.116;2022-11-21T23:49:09;98100.09;;;5.80;79.20
68988;BME280;56038;46.080;11.116;2022-11-21T23:54:11;98095.00;;;6.00;77.93
68988;BME280;56038;46.080;11.116;2022-11-21T23:59:13;98080.38;;;5.98;78.25
